Time;durP1;ratioP1;P1;durP2;ratioP2;P2;SDS_P1;SDS_P2;PMS_P1;PMS_P2;Temp;Humidity;BMP_temperature;BMP_pressure;BME280_temperature;BME280_humidity;BME280_pressure;Samples;Min_cycle;Max_cycle;Signal;HPM_P1;HPM_P2
2022/10/29 00:00:16;;;;;;;20.23;7.78;;;12.50;99.90;;;;;;4996379;28;20082;-64
2022/10/29 00:02:44;;;;;;;30.42;8.75;;;12.50;99.90;;;;;;4997010;28;20054;-65
2022/10/29 00:05:11;;;;;;;26.30;9.02;;;12.50;99.90;;;;;;4995312;28;20115;-64
2022/10/29 00:07:38;;;;;;;30.23;10.43;;;12.50;99.90;;;;;;4996500;28;20068;-64
2022/10/29 00:10:05;;;;;;;26.63;8.90;;;12.50;99.90;;;;;;5014452;28;20050;-64
2022/10/29 00:12:32;;;;;;;34.00;9.32;;;12.50;99.90;;;;;;4996855;28;20096;-64
2022/10/29 00:14:59;;;;;;;32.85;8.88;;;12.50;99.90;;;;;;4996566;28;20050;-64
2022/10/29 00:17:26;;;;;;;27.70;9.48;;;12.50;99.90;;;;;;4996479;28;20057;-64
2022/10/29 00:19:54;;;;;;;39.03;9.77;;;12.50;99.90;;;;;;5014546;28;20069;-64
2022/10/29 00:22:21;;;;;;;34.15;8.57;;;12.50;99.90;;;;;;4996170;28;20057;-64
2022/10/29 00:24:48;;;;;;;43.33;9.15;;;12.40;99.90;;;;;;5014233;28;20464;-64
2022/10/29 00:27:15;;;;;;;43.75;10.13;;;12.40;99.90;;;;;;4996762;28;20062;-64
2022/10/29 00:29:42;;;;;;;52.55;9.20;;;12.40;99.90;;;;;;4996416;28;20050;-64
2022/10/29 00:32:09;;;;;;;82.55;12.68;;;12.40;99.90;;;;;;4996789;28;20045;-65
2022/10/29 00:34:36;;;;;;;105.78;13.88;;;12.40;99.90;;;;;;5013817;28;20121;-64
2022/10/29 00:37:05;;;;;;;55.45;10.35;;;12.40;99.90;;;;;;4996188;28;20452;-64
2022/10/29 00:39:33;;;;;;;44.75;10.15;;;12.40;99.90;;;;;;5012102;28;20054;-64
2022/10/29 00:42:00;;;;;;;87.32;13.45;;;12.30;99.90;;;;;;4996047;28;20394;-64
2022/10/29 00:44:32;;;;;;;44.55;9.00;;;12.40;99.90;;;;;;5013363;28;20046;-65
2022/10/29 00:47:04;;;;;;;40.22;9.40;;;12.30;99.90;;;;;;4996746;28;20104;-65
2022/10/29 00:49:32;;;;;;;62.17;11.13;;;12.30;99.90;;;;;;5010920;28;20050;-64
2022/10/29 00:52:02;;;;;;;33.90;9.52;;;12.30;99.90;;;;;;4996486;28;20058;-64
2022/10/29 00:54:31;;;;;;;55.25;10.63;;;12.30;99.90;;;;;;4996566;28;20057;-64
2022/10/29 00:57:00;;;;;;;37.50;9.10;;;12.30;99.90;;;;;;4992933;28;20057;-63
2022/10/29 00:59:27;;;;;;;24.42;9.55;;;12.30;99.90;;;;;;5013821;28;20041;-64
2022/10/29 01:01:55;;;;;;;43.22;10.98;;;12.30;99.90;;;;;;4996086;28;20104;-64
2022/10/29 01:04:22;;;;;;;36.65;9.73;;;12.30;99.90;;;;;;5011005;28;20045;-64
2022/10/29 01:06:49;;;;;;;66.15;11.90;;;12.30;99.90;;;;;;4996303;28;20141;-63
2022/10/29 01:09:16;;;;;;;53.85;11.50;;;12.30;99.90;;;;;;5013392;28;20818;-63
2022/10/29 01:11:54;;;;;;;147.18;14.02;;;12.30;99.90;;;;;;4995325;28;20486;-64
2022/10/29 01:14:32;;;;;;;64.43;12.13;;;12.30;99.90;;;;;;5013513;28;20050;-64
2022/10/29 01:17:06;;;;;;;48.60;10.02;;;12.40;99.90;;;;;;4995914;28;20445;-63
2022/10/29 01:20:05;;;;;;;72.88;12.45;;;12.40;99.90;;;;;;5012836;28;20047;-63
2022/10/29 01:22:39;;;;;;;110.93;16.73;;;12.40;99.90;;;;;;5000523;28;20575;-64
2022/10/29 01:25:50;;;;;;;90.07;12.82;;;12.40;99.90;;;;;;5011791;28;20456;-63
2022/10/29 01:28:32;;;;;;;106.63;14.32;;;12.40;99.90;;;;;;4995699;28;20058;-63
2022/10/29 01:31:16;;;;;;;176.20;18.48;;;12.40;99.90;;;;;;5013189;28;20045;-63
2022/10/29 01:33:52;;;;;;;213.98;22.20;;;12.40;99.90;;;;;;4994981;28;20042;-66
2022/10/29 01:36:26;;;;;;;122.40;15.85;;;12.40;99.90;;;;;;4995769;28;20053;-63
2022/10/29 01:39:02;;;;;;;144.00;18.40;;;12.40;99.90;;;;;;4994870;28;20050;-64
2022/10/29 01:41:39;;;;;;;117.85;16.02;;;12.50;99.90;;;;;;5012464;28;20050;-64
2022/10/29 01:44:15;;;;;;;145.27;16.92;;;12.50;99.90;;;;;;5012609;28;20045;-64
2022/10/29 01:46:48;;;;;;;122.60;16.02;;;12.50;99.90;;;;;;4994921;28;20049;-64
2022/10/29 01:49:19;;;;;;;151.40;20.98;;;12.60;99.90;;;;;;5012976;28;20045;-64
2022/10/29 01:51:48;;;;;;;154.90;22.33;;;12.50;99.90;;;;;;4993117;28;20046;-64
2022/10/29 01:54:15;;;;;;;124.68;15.10;;;12.50;99.90;;;;;;4994662;28;20406;-63
2022/10/29 01:56:42;;;;;;;132.10;17.13;;;12.50;99.90;;;;;;4995014;28;20049;-64
2022/10/29 01:59:13;;;;;;;147.23;19.23;;;12.60;99.90;;;;;;5011493;28;20045;-63
2022/10/29 02:01:51;;;;;;;175.40;21.45;;;12.50;99.90;;;;;;4993961;28;20452;-64
2022/10/29 02:04:41;;;;;;;155.90;18.38;;;12.50;99.90;;;;;;4994968;28;20096;-63
2022/10/29 02:07:15;;;;;;;156.88;17.80;;;12.50;99.90;;;;;;4994503;28;20050;-64
2022/10/29 02:09:52;;;;;;;218.02;23.30;;;12.50;99.90;;;;;;5012593;28;20048;-64
2022/10/29 02:12:25;;;;;;;185.82;16.63;;;12.60;99.90;;;;;;4992865;28;20049;-63
2022/10/29 02:14:55;;;;;;;240.73;23.20;;;12.50;99.90;;;;;;5011989;28;20168;-63
2022/10/29 02:17:24;;;;;;;;;;;12.50;99.90;;;;;;5012582;28;20104;-64
2022/10/29 02:19:50;;;;;;;244.02;21.65;;;12.50;99.90;;;;;;4994893;28;19921;-64
2022/10/29 02:22:17;;;;;;;218.85;19.35;;;12.50;99.90;;;;;;4992479;28;20517;-64
2022/10/29 02:24:44;;;;;;;207.05;15.48;;;12.50;99.90;;;;;;4994008;28;20536;-64
2022/10/29 02:27:11;;;;;;;224.10;17.35;;;12.50;99.90;;;;;;4992386;28;20405;-64
2022/10/29 02:29:38;;;;;;;165.13;15.93;;;12.50;99.90;;;;;;5011542;28;20057;-65
2022/10/29 02:32:05;;;;;;;135.15;13.85;;;12.50;99.90;;;;;;5012319;28;20053;-64
2022/10/29 02:34:34;;;;;;;110.70;12.38;;;12.50;99.90;;;;;;5011562;28;20050;-65
2022/10/29 02:37:00;;;;;;;88.70;11.05;;;12.50;99.90;;;;;;4994278;28;20045;-65
2022/10/29 02:39:27;;;;;;;95.75;12.70;;;12.50;99.90;;;;;;5011845;28;20042;-63
2022/10/29 02:41:54;;;;;;;136.50;13.00;;;12.50;99.90;;;;;;4994657;28;20050;-64
2022/10/29 02:44:21;;;;;;;102.47;11.80;;;12.50;99.90;;;;;;5011596;28;20556;-65
2022/10/29 02:46:48;;;;;;;142.27;17.25;;;12.50;99.90;;;;;;5012341;28;20409;-65
2022/10/29 02:49:15;;;;;;;144.05;15.57;;;12.50;99.90;;;;;;5011298;28;20497;-64
2022/10/29 02:51:43;;;;;;;153.65;16.27;;;12.50;99.90;;;;;;5012025;28;20501;-64
2022/10/29 02:54:10;;;;;;;155.15;14.65;;;12.50;99.90;;;;;;4994508;28;20050;-64
2022/10/29 02:56:37;;;;;;;67.32;9.32;;;12.50;99.90;;;;;;5011516;28;20054;-64
2022/10/29 02:59:04;;;;;;;74.60;9.40;;;12.50;99.90;;;;;;4994634;28;20088;-64
2022/10/29 03:01:30;;;;;;;133.57;10.80;;;12.50;99.90;;;;;;5011957;28;20042;-64
2022/10/29 03:03:58;;;;;;;100.60;9.65;;;12.50;99.90;;;;;;4993987;28;20042;-65
2022/10/29 03:06:25;;;;;;;70.53;8.25;;;12.50;99.90;;;;;;4994236;28;20050;-64
2022/10/29 03:08:53;;;;;;;97.07;11.02;;;12.50;99.90;;;;;;5011166;28;20053;-64
2022/10/29 03:11:20;;;;;;;93.50;9.05;;;12.50;99.90;;;;;;5011255;28;20390;-64
2022/10/29 03:13:47;;;;;;;111.75;13.20;;;12.40;99.90;;;;;;4994461;28;20108;-65
2022/10/29 03:16:14;;;;;;;75.75;9.18;;;12.40;99.90;;;;;;4994152;28;20049;-64
2022/10/29 03:18:41;;;;;;;72.85;8.75;;;12.40;99.90;;;;;;4993452;28;20058;-64
2022/10/29 03:21:08;;;;;;;81.32;8.52;;;12.40;99.90;;;;;;5012071;28;20053;-64
2022/10/29 03:23:35;;;;;;;89.50;9.25;;;12.30;99.90;;;;;;5011187;28;20096;-64
2022/10/29 03:26:03;;;;;;;80.75;8.93;;;12.30;99.90;;;;;;4993906;28;20093;-63
2022/10/29 03:28:30;;;;;;;83.55;8.20;;;12.30;99.90;;;;;;5011948;28;20050;-64
2022/10/29 03:30:57;;;;;;;85.65;9.32;;;12.30;99.90;;;;;;5011023;28;20125;-63
2022/10/29 03:33:25;;;;;;;108.82;12.85;;;12.30;99.90;;;;;;4994052;28;20049;-64
2022/10/29 03:35:56;;;;;;;106.25;10.38;;;12.20;99.90;;;;;;5011609;28;20132;-64
2022/10/29 03:38:23;;;;;;;111.95;10.90;;;12.20;99.90;;;;;;4993256;28;20133;-64
2022/10/29 03:40:50;;;;;;;185.63;16.88;;;12.20;99.90;;;;;;5011910;28;20482;-63
2022/10/29 03:43:19;;;;;;;154.13;11.27;;;12.20;99.90;;;;;;4994225;28;20105;-64
2022/10/29 03:45:50;;;;;;;180.27;12.23;;;12.20;99.90;;;;;;4995224;28;20054;-65
2022/10/29 03:48:17;;;;;;;167.57;11.55;;;12.20;99.90;;;;;;5015154;28;20450;-65
2022/10/29 03:50:44;;;;;;;101.43;9.32;;;12.20;99.90;;;;;;4997302;28;20489;-64
2022/10/29 03:53:11;;;;;;;61.15;9.45;;;12.20;99.90;;;;;;5014136;28;20061;-65
2022/10/29 03:55:38;;;;;;;89.78;8.50;;;12.20;99.90;;;;;;4996879;28;20054;-65
2022/10/29 03:58:05;;;;;;;69.30;9.02;;;12.20;99.90;;;;;;5014914;28;20134;-64
2022/10/29 04:00:33;;;;;;;141.48;11.73;;;12.20;99.90;;;;;;4996756;28;20054;-65
2022/10/29 04:03:00;;;;;;;111.32;10.68;;;12.20;99.90;;;;;;5014776;28;20045;-63
2022/10/29 04:05:27;;;;;;;42.28;8.40;;;12.20;99.90;;;;;;5014282;28;20046;-64
2022/10/29 04:07:54;;;;;;;70.15;8.35;;;12.20;99.90;;;;;;4996696;28;20445;-64
2022/10/29 04:10:21;;;;;;;138.65;10.63;;;12.20;99.90;;;;;;4996653;28;20081;-64
2022/10/29 04:12:48;;;;;;;130.73;10.13;;;12.20;99.90;;;;;;4996749;28;20050;-64
2022/10/29 04:15:15;;;;;;;129.02;10.25;;;12.20;99.90;;;;;;5013863;28;20073;-64
2022/10/29 04:17:43;;;;;;;117.15;11.10;;;12.20;99.90;;;;;;4996904;28;20058;-63
2022/10/29 04:20:10;;;;;;;196.82;15.38;;;12.20;99.90;;;;;;5014124;28;20677;-62
2022/10/29 04:22:37;;;;;;;101.68;9.90;;;12.20;99.90;;;;;;4996807;28;20085;-63
2022/10/29 04:25:05;;;;;;;84.43;8.45;;;12.20;99.90;;;;;;4996525;28;20105;-63
2022/10/29 04:27:32;;;;;;;97.38;10.65;;;12.20;99.90;;;;;;4996431;28;20104;-63
2022/10/29 04:29:58;;;;;;;51.00;7.50;;;12.20;99.90;;;;;;5012315;28;20056;-63
2022/10/29 04:32:25;;;;;;;115.65;10.55;;;12.20;99.90;;;;;;5014115;28;20058;-63
2022/10/29 04:34:53;;;;;;;83.95;8.80;;;12.20;99.90;;;;;;5013553;28;20053;-64
2022/10/29 04:37:20;;;;;;;78.97;9.02;;;12.20;99.90;;;;;;5014454;28;20053;-63
2022/10/29 04:39:47;;;;;;;103.05;10.68;;;12.20;99.90;;;;;;4996044;28;20057;-62
2022/10/29 04:42:14;;;;;;;98.40;10.50;;;12.10;99.90;;;;;;4996082;28;20065;-63
2022/10/29 04:44:41;;;;;;;115.82;11.05;;;12.10;99.90;;;;;;5013767;28;20050;-63
2022/10/29 04:47:08;;;;;;;90.63;10.07;;;12.10;99.90;;;;;;5011299;28;20501;-63
2022/10/29 04:49:34;;;;;;;69.72;10.68;;;12.10;99.90;;;;;;5013151;28;20050;-64
2022/10/29 04:52:03;;;;;;;96.90;10.60;;;12.10;99.90;;;;;;5014212;28;20053;-65
2022/10/29 04:54:30;;;;;;;75.10;9.95;;;12.10;99.90;;;;;;4995732;28;20045;-65
2022/10/29 04:56:57;;;;;;;103.15;11.05;;;12.10;99.90;;;;;;4994928;28;20069;-66
2022/10/29 04:59:23;;;;;;;64.43;9.65;;;12.10;99.90;;;;;;5013656;28;20050;-64
2022/10/29 05:01:50;;;;;;;86.03;10.63;;;12.10;99.90;;;;;;4995912;28;20524;-64
2022/10/29 05:04:17;;;;;;;81.38;9.75;;;12.10;99.90;;;;;;4995586;28;20046;-64
2022/10/29 05:06:44;;;;;;;71.00;9.90;;;12.20;99.90;;;;;;4996121;28;20108;-65
2022/10/29 05:09:12;;;;;;;97.28;12.35;;;12.20;99.90;;;;;;4996079;28;20046;-64
2022/10/29 05:11:39;;;;;;;81.45;10.95;;;12.30;99.90;;;;;;4994594;28;20104;-64
2022/10/29 05:14:06;;;;;;;128.27;13.10;;;12.20;99.90;;;;;;4996109;28;20056;-65
2022/10/29 05:16:33;;;;;;;92.15;12.38;;;12.30;99.90;;;;;;5013036;28;20567;-64
2022/10/29 05:19:00;;;;;;;86.38;12.90;;;12.30;99.90;;;;;;4995360;28;20058;-64
2022/10/29 05:21:27;;;;;;;80.15;11.38;;;12.30;99.90;;;;;;4993840;28;20049;-63
2022/10/29 05:23:53;;;;;;;92.22;12.48;;;12.30;99.90;;;;;;4994539;28;20061;-64
2022/10/29 05:26:22;;;;;;;118.47;14.20;;;12.30;99.90;;;;;;4995875;28;20045;-63
2022/10/29 05:28:50;;;;;;;103.32;12.45;;;12.30;99.90;;;;;;5012665;28;20096;-63
2022/10/29 05:31:17;;;;;;;177.60;20.30;;;12.30;99.90;;;;;;4994839;28;20509;-63
2022/10/29 05:33:44;;;;;;;84.45;11.20;;;12.30;99.90;;;;;;4993762;28;20049;-65
2022/10/29 05:36:11;;;;;;;92.78;10.85;;;12.30;99.90;;;;;;4995284;28;20045;-64
2022/10/29 05:38:38;;;;;;;82.93;11.65;;;12.30;99.90;;;;;;5011984;28;20493;-63
2022/10/29 05:41:05;;;;;;;96.35;12.40;;;12.30;99.90;;;;;;5013148;28;20077;-63
2022/10/29 05:43:33;;;;;;;75.55;12.23;;;12.30;99.90;;;;;;5012702;28;20050;-64
2022/10/29 05:46:02;;;;;;;73.18;10.68;;;12.30;99.90;;;;;;4994425;28;20045;-63
2022/10/29 05:48:29;;;;;;;70.53;10.82;;;12.30;99.90;;;;;;5012694;28;20616;-63
2022/10/29 05:50:57;;;;;;;86.63;11.27;;;12.30;99.90;;;;;;4995045;28;20046;-65
2022/10/29 05:53:24;;;;;;;49.70;9.15;;;12.30;99.90;;;;;;4994394;28;20045;-64
2022/10/29 05:55:51;;;;;;;53.30;8.45;;;12.30;99.90;;;;;;4995053;28;20453;-64
2022/10/29 05:58:18;;;;;;;53.75;9.00;;;12.30;99.90;;;;;;4994734;28;20057;-66
2022/10/29 06:00:46;;;;;;;71.70;10.98;;;12.30;99.90;;;;;;5010729;28;20053;-63
2022/10/29 06:03:17;;;;;;;71.55;11.13;;;12.30;99.90;;;;;;4994224;28;20441;-64
2022/10/29 06:05:46;;;;;;;45.55;8.93;;;12.30;99.90;;;;;;4993802;28;20100;-64
2022/10/29 06:08:12;;;;;;;63.28;11.40;;;12.20;99.90;;;;;;5010693;28;20125;-64
2022/10/29 06:10:39;;;;;;;53.30;10.77;;;12.20;99.90;;;;;;5012257;28;20062;-64
2022/10/29 06:13:11;;;;;;;46.30;8.75;;;12.30;99.90;;;;;;5009957;28;20041;-64
2022/10/29 06:15:38;;;;;;;31.08;8.35;;;12.30;99.90;;;;;;5012160;28;20129;-63
2022/10/29 06:18:06;;;;;;;51.03;7.97;;;12.30;99.90;;;;;;5012030;28;20053;-64
2022/10/29 06:20:33;;;;;;;51.35;9.35;;;12.30;99.90;;;;;;5011726;28;20042;-65
2022/10/29 06:23:00;;;;;;;59.15;9.55;;;12.30;99.90;;;;;;5011952;28;20104;-65
2022/10/29 06:25:27;;;;;;;71.15;10.40;;;12.30;99.90;;;;;;4994382;28;20042;-64
2022/10/29 06:27:59;;;;;;;63.65;8.55;;;12.30;99.90;;;;;;5011639;28;20187;-66
2022/10/29 06:30:26;;;;;;;56.90;8.60;;;12.30;99.90;;;;;;4992633;28;20528;-64
2022/10/29 06:32:53;;;;;;;69.72;11.02;;;12.30;99.90;;;;;;4994540;28;20050;-66
2022/10/29 06:35:22;;;;;;;99.80;11.95;;;12.30;99.90;;;;;;5011052;28;20050;-63
2022/10/29 06:37:49;;;;;;;116.65;13.70;;;12.30;99.90;;;;;;4994854;28;20062;-64
2022/10/29 06:40:16;;;;;;;122.47;11.65;;;12.30;99.90;;;;;;4988485;28;20504;-64
2022/10/29 06:42:43;;;;;;;164.20;13.30;;;12.40;99.90;;;;;;4987467;28;20449;-64
2022/10/29 06:45:11;;;;;;;64.10;10.70;;;12.40;99.90;;;;;;5005669;28;20042;-64
2022/10/29 06:47:41;;;;;;;90.15;12.35;;;12.40;99.90;;;;;;4987559;28;20058;-63
2022/10/29 06:50:09;;;;;;;;;;;12.40;99.90;;;;;;4986925;28;20049;-63
2022/10/29 06:52:38;;;;;;;74.82;11.90;;;12.50;99.90;;;;;;4987499;28;19979;-63
2022/10/29 06:55:07;;;;;;;76.88;10.15;;;12.40;99.90;;;;;;5007249;28;20049;-63
2022/10/29 06:57:34;;;;;;;43.83;8.05;;;12.50;99.90;;;;;;4988141;28;20457;-63
2022/10/29 07:00:00;;;;;;;80.80;10.75;;;12.50;99.90;;;;;;4991052;28;20054;-64
2022/10/29 07:02:27;;;;;;;45.90;10.35;;;12.50;99.90;;;;;;4986018;28;20536;-63
2022/10/29 07:04:54;;;;;;;53.72;10.63;;;12.60;99.90;;;;;;5005186;28;20182;-63
2022/10/29 07:07:21;;;;;;;60.15;10.20;;;12.60;99.90;;;;;;4986243;28;20532;-63
2022/10/29 07:09:50;;;;;;;108.28;10.32;;;12.70;99.90;;;;;;4992201;28;20064;-63
2022/10/29 07:12:16;;;;;;;54.47;9.40;;;12.70;99.90;;;;;;4990602;28;20045;-65
2022/10/29 07:14:43;;;;;;;62.35;10.95;;;12.80;99.90;;;;;;5003836;28;20057;-64
2022/10/29 07:17:10;;;;;;;62.63;8.85;;;13.00;99.90;;;;;;5009089;28;20090;-64
2022/10/29 07:19:37;;;;;;;59.95;9.60;;;13.20;99.90;;;;;;4991085;28;20058;-64
2022/10/29 07:22:04;;;;;;;79.85;10.45;;;13.40;99.90;;;;;;5008184;28;20457;-64
2022/10/29 07:24:31;;;;;;;44.42;9.20;;;13.30;99.90;;;;;;4991039;28;20061;-64
2022/10/29 07:27:00;;;;;;;52.05;10.63;;;13.30;99.90;;;;;;4991282;28;20079;-63
2022/10/29 07:29:27;;;;;;;51.95;10.60;;;13.30;99.90;;;;;;5012532;28;20532;-64
2022/10/29 07:31:54;;;;;;;41.60;10.23;;;13.20;99.90;;;;;;4990623;28;20512;-63
2022/10/29 07:34:21;;;;;;;78.75;12.45;;;13.20;99.90;;;;;;5008648;28;20548;-63
2022/10/29 07:36:48;;;;;;;55.35;10.60;;;13.20;99.90;;;;;;4992161;28;20379;-62
2022/10/29 07:39:14;;;;;;;82.13;11.35;;;13.20;99.90;;;;;;4996022;28;20046;-63
2022/10/29 07:41:41;;;;;;;60.85;11.10;;;13.30;99.90;;;;;;4990482;28;20057;-63
2022/10/29 07:44:10;;;;;;;49.00;11.40;;;13.30;99.90;;;;;;4989965;28;20427;-63
2022/10/29 07:46:36;;;;;;;46.50;10.57;;;13.30;99.90;;;;;;5004941;28;20060;-64
2022/10/29 07:49:03;;;;;;;90.10;13.68;;;13.40;99.90;;;;;;4993425;28;20104;-64
2022/10/29 07:51:31;;;;;;;56.08;12.38;;;13.40;99.90;;;;;;4988857;28;20069;-64
2022/10/29 07:53:58;;;;;;;57.95;11.57;;;13.50;99.90;;;;;;5007551;28;20042;-63
2022/10/29 07:56:25;;;;;;;57.13;11.98;;;13.50;99.90;;;;;;4990797;28;20114;-64
2022/10/29 07:58:52;;;;;;;71.68;13.18;;;13.60;99.90;;;;;;4993552;28;20088;-64
2022/10/29 08:01:20;;;;;;;53.38;11.35;;;13.60;99.90;;;;;;4990394;28;20054;-63
2022/10/29 08:03:49;;;;;;;60.10;11.63;;;13.70;99.90;;;;;;4996122;28;20884;-64
2022/10/29 08:06:16;;;;;;;43.08;11.27;;;13.80;99.90;;;;;;4988818;28;20508;-64
2022/10/29 08:08:43;;;;;;;39.60;11.60;;;13.80;99.90;;;;;;4988187;28;20061;-64
2022/10/29 08:11:10;;;;;;;48.45;12.38;;;13.80;99.90;;;;;;4992536;28;20405;-64
2022/10/29 08:13:37;;;;;;;47.63;12.30;;;13.90;99.90;;;;;;5009387;28;20061;-64
2022/10/29 08:16:04;;;;;;;46.05;13.18;;;13.90;99.90;;;;;;5007219;28;20042;-64
2022/10/29 08:18:32;;;;;;;44.20;13.32;;;14.00;99.90;;;;;;4985131;28;20104;-64
2022/10/29 08:21:02;;;;;;;56.22;15.88;;;14.00;99.90;;;;;;4986523;28;20096;-64
2022/10/29 08:23:29;;;;;;;35.97;14.43;;;14.00;99.90;;;;;;4988159;28;20043;-64
2022/10/29 08:25:57;;;;;;;34.80;13.93;;;14.00;99.90;;;;;;4982988;28;20505;-64
2022/10/29 08:28:24;;;;;;;33.72;14.82;;;14.10;99.90;;;;;;4991905;28;20101;-63
2022/10/29 08:30:51;;;;;;;37.05;15.32;;;14.10;99.90;;;;;;4985827;28;20097;-64
2022/10/29 08:33:19;;;;;;;38.28;16.60;;;14.10;99.90;;;;;;4988014;28;20054;-64
2022/10/29 08:35:47;;;;;;;37.92;15.10;;;14.20;99.90;;;;;;4986061;28;20069;-64
2022/10/29 08:38:14;;;;;;;38.47;16.52;;;14.20;99.90;;;;;;4985607;28;20100;-65
2022/10/29 08:40:54;;;;;;;48.50;16.15;;;14.30;99.90;;;;;;4991860;28;20055;-63
2022/10/29 08:43:54;;;;;;;38.55;16.75;;;14.40;99.90;;;;;;4986958;28;20051;-64
2022/10/29 08:46:29;;;;;;;41.60;18.17;;;14.40;99.90;;;;;;4987607;28;20043;-64
2022/10/29 08:49:01;;;;;;;42.72;18.92;;;14.40;99.90;;;;;;4989710;28;20494;-64
2022/10/29 08:51:33;;;;;;;38.28;17.35;;;14.50;99.90;;;;;;4986432;28;20998;-64
2022/10/29 08:54:01;;;;;;;42.28;17.60;;;14.60;99.90;;;;;;4986844;28;20498;-64
2022/10/29 08:56:29;;;;;;;35.92;19.38;;;14.70;99.90;;;;;;4987665;28;20057;-64
2022/10/29 08:59:02;;;;;;;36.55;18.38;;;14.70;99.90;;;;;;4991725;28;20054;-64
2022/10/29 09:01:29;;;;;;;35.10;16.77;;;14.80;99.90;;;;;;4985293;28;20382;-63
2022/10/29 09:03:56;;;;;;;45.33;19.95;;;14.70;99.90;;;;;;4989311;28;20490;-62
2022/10/29 09:06:34;;;;;;;36.03;18.58;;;14.70;99.90;;;;;;4988474;28;20042;-64
2022/10/29 09:09:13;;;;;;;43.63;20.33;;;14.70;99.90;;;;;;4985461;28;20062;-64
2022/10/29 09:11:54;;;;;;;35.83;18.92;;;14.60;99.90;;;;;;4991635;28;20054;-64
2022/10/29 09:14:40;;;;;;;41.22;19.10;;;14.60;99.90;;;;;;4992197;28;20050;-64
2022/10/29 09:17:16;;;;;;;44.00;20.13;;;14.60;99.90;;;;;;4992024;28;20046;-64
2022/10/29 09:19:59;;;;;;;42.88;20.90;;;14.70;99.90;;;;;;4993794;28;20465;-64
2022/10/29 09:22:35;;;;;;;42.17;21.05;;;14.70;99.90;;;;;;4991334;28;20097;-63
2022/10/29 09:25:11;;;;;;;39.05;21.55;;;14.70;99.90;;;;;;4991850;28;20453;-63
2022/10/29 09:27:47;;;;;;;43.25;20.77;;;14.80;99.90;;;;;;4992401;28;20050;-64
2022/10/29 09:30:16;;;;;;;38.05;21.48;;;14.80;99.90;;;;;;4992180;28;20469;-65
2022/10/29 09:32:51;;;;;;;38.83;20.23;;;14.90;99.90;;;;;;4992438;28;20058;-64
2022/10/29 09:35:19;;;;;;;38.17;20.98;;;15.00;99.90;;;;;;4990922;28;20105;-63
2022/10/29 09:37:49;;;;;;;41.05;20.02;;;15.20;99.90;;;;;;4991883;28;20121;-64
2022/10/29 09:40:27;;;;;;;36.05;20.10;;;15.20;99.90;;;;;;4992703;28;20058;-64
2022/10/29 09:42:55;;;;;;;42.85;21.10;;;15.30;99.90;;;;;;4990150;28;20101;-64
2022/10/29 09:45:31;;;;;;;41.65;20.75;;;15.30;99.90;;;;;;4990748;28;20046;-65
2022/10/29 09:48:03;;;;;;;43.45;20.65;;;15.30;99.90;;;;;;4992469;28;20453;-63
2022/10/29 09:50:37;;;;;;;35.53;18.15;;;15.30;99.90;;;;;;4992185;28;20062;-64
2022/10/29 09:53:05;;;;;;;38.05;19.52;;;15.30;99.90;;;;;;4990635;28;20050;-64
2022/10/29 09:55:38;;;;;;;39.63;19.85;;;15.30;99.90;;;;;;4991839;28;20447;-64
2022/10/29 09:58:06;;;;;;;38.38;19.63;;;15.30;99.90;;;;;;4992226;28;20062;-64
2022/10/29 10:00:33;;;;;;;31.63;18.45;;;15.20;99.90;;;;;;4992141;28;20104;-64
2022/10/29 10:03:06;;;;;;;35.53;18.50;;;15.30;99.90;;;;;;4992742;28;20109;-65
2022/10/29 10:05:34;;;;;;;30.85;16.50;;;15.40;99.90;;;;;;4991319;28;20108;-64
2022/10/29 10:08:08;;;;;;;37.25;16.15;;;15.50;99.90;;;;;;4992884;28;20054;-64
2022/10/29 10:10:38;;;;;;;29.92;15.70;;;15.60;99.90;;;;;;4993016;28;20454;-64
2022/10/29 10:13:06;;;;;;;30.52;16.95;;;15.80;99.90;;;;;;4992479;28;20050;-64
2022/10/29 10:15:35;;;;;;;28.92;15.40;;;15.90;99.90;;;;;;4992949;28;20454;-63
2022/10/29 10:18:03;;;;;;;29.10;14.48;;;16.00;99.90;;;;;;4999123;28;20092;-64
2022/10/29 10:20:37;;;;;;;29.27;14.85;;;16.10;99.90;;;;;;5011852;28;20042;-64
2022/10/29 10:23:23;;;;;;;22.17;13.63;;;16.20;99.90;;;;;;5011126;28;20382;-64
2022/10/29 10:25:51;;;;;;;24.67;13.27;;;16.30;99.90;;;;;;4992148;28;20052;-63
2022/10/29 10:28:20;;;;;;;29.17;13.75;;;16.50;99.90;;;;;;5011654;28;20104;-64
2022/10/29 10:31:10;;;;;;;27.83;15.18;;;16.60;99.90;;;;;;4994939;28;20153;-64
2022/10/29 10:33:44;;;;;;;26.77;12.60;;;16.90;99.90;;;;;;5011609;28;20054;-64
2022/10/29 10:36:11;;;;;;;24.02;11.50;;;17.10;99.90;;;;;;4994394;28;20050;-63
2022/10/29 10:38:41;;;;;;;20.50;12.10;;;17.40;99.90;;;;;;4994536;28;20062;-64
2022/10/29 10:41:11;;;;;;;22.52;12.10;;;17.50;99.90;;;;;;4991793;28;20116;-63
2022/10/29 10:43:42;;;;;;;21.00;10.32;;;17.50;99.90;;;;;;4994558;28;20398;-63
2022/10/29 10:46:14;;;;;;;21.88;11.35;;;17.40;99.90;;;;;;4994139;28;20046;-64
2022/10/29 10:48:41;;;;;;;19.17;10.85;;;17.40;99.90;;;;;;5007878;28;20053;-65
2022/10/29 10:51:26;;;;;;;19.50;10.05;;;17.40;99.90;;;;;;4997108;28;20096;-64
2022/10/29 10:53:54;;;;;;;19.20;10.65;;;17.40;99.90;;;;;;5003916;28;20103;-64
2022/10/29 10:56:22;;;;;;;17.98;10.40;;;17.50;99.90;;;;;;4990990;28;20124;-64
2022/10/29 10:58:56;;;;;;;16.67;10.15;;;17.50;99.90;;;;;;4992103;28;20046;-64
2022/10/29 11:01:29;;;;;;;20.55;9.77;;;17.70;99.90;;;;;;4992860;28;20099;-64
2022/10/29 11:04:05;;;;;;;17.38;9.00;;;17.80;99.90;;;;;;5008314;28;20057;-64
2022/10/29 11:06:35;;;;;;;18.83;9.57;;;18.00;99.90;;;;;;5009959;28;20089;-65
2022/10/29 11:09:12;;;;;;;17.63;9.02;;;18.10;99.90;;;;;;4993460;28;20049;-65
2022/10/29 11:11:43;;;;;;;20.52;9.70;;;18.30;99.90;;;;;;5009980;28;20050;-65
2022/10/29 11:14:15;;;;;;;19.40;10.55;;;18.40;99.90;;;;;;5007352;28;20464;-65
2022/10/29 11:16:47;;;;;;;20.02;9.05;;;18.70;99.90;;;;;;4993648;28;20387;-64
2022/10/29 11:19:21;;;;;;;17.95;9.15;;;18.90;99.90;;;;;;4995155;28;20140;-63
2022/10/29 11:22:01;;;;;;;13.98;8.38;;;19.20;99.90;;;;;;4991299;28;20062;-64
2022/10/29 11:24:39;;;;;;;19.73;10.45;;;19.50;99.90;;;;;;5006915;28;20574;-63
2022/10/29 11:27:16;;;;;;;19.73;8.43;;;19.70;99.90;;;;;;4991010;28;20556;-63
2022/10/29 11:29:48;;;;;;;18.48;9.10;;;19.80;99.90;;;;;;5009198;28;20440;-63
2022/10/29 11:32:19;;;;;;;14.10;8.23;;;19.90;99.90;;;;;;4990411;28;20058;-63
2022/10/29 11:34:51;;;;;;;14.30;7.07;;;19.80;99.90;;;;;;4993446;28;20100;-65
2022/10/29 11:37:23;;;;;;;15.90;7.32;;;19.90;99.90;;;;;;4989545;28;20095;-64
2022/10/29 11:39:56;;;;;;;12.82;6.65;;;19.90;99.90;;;;;;4990286;28;20405;-64
2022/10/29 11:42:23;;;;;;;11.48;6.65;;;20.30;99.90;;;;;;5009942;28;20054;-64
2022/10/29 11:44:51;;;;;;;21.55;8.13;;;20.40;99.90;;;;;;5004961;28;20498;-64
2022/10/29 11:47:33;;;;;;;15.70;7.32;;;20.50;99.90;;;;;;5008869;28;20052;-64
2022/10/29 11:50:14;;;;;;;15.63;6.93;;;20.40;99.90;;;;;;4992864;28;20116;-64
2022/10/29 11:52:54;;;;;;;15.73;7.32;;;20.30;99.90;;;;;;4989017;28;20442;-63
2022/10/29 11:55:33;;;;;;;16.03;7.97;;;20.50;99.90;;;;;;4994729;28;20057;-65
2022/10/29 11:58:03;;;;;;;11.65;6.68;;;20.80;99.90;;;;;;5008653;28;20038;-65
2022/10/29 12:00:44;;;;;;;18.88;7.53;;;21.00;99.90;;;;;;4996306;28;20054;-64
2022/10/29 12:03:26;;;;;;;;;;;20.90;99.90;;;;;;5014265;28;20057;-66
2022/10/29 12:06:02;;;;;;;16.10;7.63;;;20.80;99.90;;;;;;4994615;28;19976;-64
2022/10/29 12:08:44;;;;;;;16.73;8.02;;;20.50;99.90;;;;;;4995923;28;20057;-64
2022/10/29 12:11:22;;;;;;;19.65;7.28;;;20.20;99.90;;;;;;5014677;28;20111;-65
2022/10/29 12:14:00;;;;;;;21.40;8.32;;;20.00;99.90;;;;;;4995950;28;20493;-64
2022/10/29 12:16:35;;;;;;;13.48;8.32;;;19.80;99.90;;;;;;5014436;28;20038;-65
2022/10/29 12:19:10;;;;;;;13.63;7.57;;;19.60;99.90;;;;;;5014094;28;20076;-64
2022/10/29 12:21:47;;;;;;;16.10;8.00;;;19.40;99.90;;;;;;4997080;28;20050;-64
2022/10/29 12:24:30;;;;;;;15.13;7.40;;;19.40;99.90;;;;;;4996643;28;20049;-65
2022/10/29 12:27:04;;;;;;;16.98;7.70;;;19.70;99.90;;;;;;5012772;28;20041;-65
2022/10/29 12:29:38;;;;;;;17.63;7.88;;;20.20;99.90;;;;;;4996686;28;20057;-65
2022/10/29 12:32:11;;;;;;;18.42;7.70;;;20.50;99.90;;;;;;4997288;28;20111;-64
2022/10/29 12:34:45;;;;;;;19.00;8.20;;;20.60;99.90;;;;;;5011534;28;20075;-64
2022/10/29 12:37:18;;;;;;;13.38;7.57;;;20.70;99.90;;;;;;5013806;28;20489;-65
2022/10/29 12:39:49;;;;;;;16.40;7.75;;;20.80;99.90;;;;;;4996929;28;20045;-64
2022/10/29 12:42:22;;;;;;;10.73;6.65;;;20.90;99.90;;;;;;4996272;28;20128;-64